Hoegh Amsterdam — C6AO4 — position and weather

sailwx.info

Track history (hours):
 
Tides and Currents Weather Stations Pressure Air Temp Water Temp Dewpoint Dewpoint Depression Visibility Wind Speed Wind Dir Waves Ship Positions

Hoegh Amsterdam

Last reported at 2017-Oct-19 00:08 UTC. Time now 2017-Oct-22 18:59 UTC.
Position N 31°23' E 032°20'.

Length 200 m; draft 9.3 m.

Type: Cargo ship. MMSI: 311000103.

Date/timePositionNaut miles runAvg speedWind from/ knotsBaromVisibWave heightAir tempDewpointWater temp
2017-Oct-19 00:08N 31°23' E 032°20'0 0.1
2017-Oct-18 23:56N 31°23' E 032°20'0 0.0
2017-Oct-18 23:29N 31°23' E 032°20'0 0.0
2017-Oct-18 21:23N 31°23' E 032°20'0 0.1
2017-Oct-18 20:44N 31°23' E 032°20'0 0.1
2017-Oct-18 20:26N 31°23' E 032°20'0 0.0
2017-Oct-18 19:53N 31°23' E 032°20'3 3.1
2017-Oct-18 19:02N 31°25' E 032°21'0 7.1
2017-Oct-18 18:57N 31°26' E 032°22'5 8.3
2017-Oct-18 18:19N 31°31' E 032°22'7 9.4
2017-Oct-18 17:36N 31°37' E 032°25'215.1
2017-Oct-18 17:27N 31°38' E 032°27'715.3
2017-Oct-18 17:00N 31°42' E 032°34'7215.1
2017-Oct-18 12:15N 32°33' E 033°33'474 9.4
2017-Oct-16 09:55N 37°24' E 025°55'717.0
2017-Oct-16 09:30N 37°29' E 025°50'918.1
2017-Oct-16 09:00N 37°38' E 025°46'918.2
2017-Oct-16 08:30N 37°47' E 025°42'12817.4
2017-Oct-16 01:09N 39°54' E 025°51'318.8
2017-Oct-16 01:00N 39°56' E 025°53'1416.7
2017-Oct-16 00:09N 40°02' E 026°11'2 9.9
2017-Oct-15 23:57N 40°02' E 026°13'13312.7
2017-Oct-15 13:28N 40°26' E 029°04'1 0.2
2017-Oct-15 07:26N 40°25' E 029°05'3 3.9
2017-Oct-15 06:37N 40°26' E 029°01'134 5.9
2017-Oct-14 08:00N 40°01' E 026°09'17214.0
2017-Oct-13 19:44N 37°36' E 024°11'46216.3
2017-Oct-12 15:23N 36°38' E 014°36'817.9
2017-Oct-12 14:57N 36°40' E 014°27'72417.1
2017-Oct-10 20:45N 36°33' W 000°35'818.1
2017-Oct-10 20:17N 36°30' W 000°45'324 8.9
2017-Oct-09 07:55N 35°53' W 007°23'714.9
2017-Oct-09 07:26N 35°54' W 007°32'716.3
2017-Oct-09 06:59N 35°54' W 007°41'3617.3
2017-Oct-09 04:54N 35°57' W 008°26'717.2
2017-Oct-09 04:28N 35°57' W 008°35'817.0
2017-Oct-09 04:01N 35°57' W 008°44'917.1
2017-Oct-09 03:31N 35°56' W 008°55'917.2
2017-Oct-09 03:00N 35°55' W 009°05'917.1
2017-Oct-09 02:31N 35°55' W 009°16'917.1
2017-Oct-09 02:00N 35°54' W 009°27'917.3
2017-Oct-09 01:31N 35°53' W 009°37'1117.2
2017-Oct-09 00:53N 35°52' W 009°50'617.0
2017-Oct-09 00:31N 35°51' W 009°58'  
Track history (hours):
 
Tides and Currents Weather Stations Pressure Air Temp Water Temp Dewpoint Dewpoint Depression Visibility Wind Speed Wind Dir Waves Ship Positions

Hoegh Amsterdam

Last reported at 2017-Oct-19 00:08 UTC. Time now 2017-Oct-22 18:59 UTC.
Position N 31°23' E 032°20'.

Length 200 m; draft 9.3 m.

Type: Cargo ship. MMSI: 311000103.

Date/timePositionNaut miles runAvg speedWind from/ knotsBaromVisibWave heightAir tempDewpointWater temp
2017-Oct-19 00:08N 31°23' E 032°20'0 0.1
2017-Oct-18 23:56N 31°23' E 032°20'0 0.0
2017-Oct-18 23:29N 31°23' E 032°20'0 0.0
2017-Oct-18 21:23N 31°23' E 032°20'0 0.1
2017-Oct-18 20:44N 31°23' E 032°20'0 0.1
2017-Oct-18 20:26N 31°23' E 032°20'0 0.0
2017-Oct-18 19:53N 31°23' E 032°20'3 3.1
2017-Oct-18 19:02N 31°25' E 032°21'0 7.1
2017-Oct-18 18:57N 31°26' E 032°22'5 8.3
2017-Oct-18 18:19N 31°31' E 032°22'7 9.4
2017-Oct-18 17:36N 31°37' E 032°25'215.1
2017-Oct-18 17:27N 31°38' E 032°27'715.3
2017-Oct-18 17:00N 31°42' E 032°34'7215.1
2017-Oct-18 12:15N 32°33' E 033°33'474 9.4
2017-Oct-16 09:55N 37°24' E 025°55'717.0
2017-Oct-16 09:30N 37°29' E 025°50'918.1
2017-Oct-16 09:00N 37°38' E 025°46'918.2
2017-Oct-16 08:30N 37°47' E 025°42'12817.4
2017-Oct-16 01:09N 39°54' E 025°51'318.8
2017-Oct-16 01:00N 39°56' E 025°53'1416.7
2017-Oct-16 00:09N 40°02' E 026°11'2 9.9
2017-Oct-15 23:57N 40°02' E 026°13'13312.7
2017-Oct-15 13:28N 40°26' E 029°04'1 0.2
2017-Oct-15 07:26N 40°25' E 029°05'3 3.9
2017-Oct-15 06:37N 40°26' E 029°01'134 5.9
2017-Oct-14 08:00N 40°01' E 026°09'17214.0
2017-Oct-13 19:44N 37°36' E 024°11'46216.3
2017-Oct-12 15:23N 36°38' E 014°36'817.9
2017-Oct-12 14:57N 36°40' E 014°27'72417.1
2017-Oct-10 20:45N 36°33' W 000°35'818.1
2017-Oct-10 20:17N 36°30' W 000°45'324 8.9
2017-Oct-09 07:55N 35°53' W 007°23'714.9
2017-Oct-09 07:26N 35°54' W 007°32'716.3
2017-Oct-09 06:59N 35°54' W 007°41'3617.3
2017-Oct-09 04:54N 35°57' W 008°26'717.2
2017-Oct-09 04:28N 35°57' W 008°35'817.0
2017-Oct-09 04:01N 35°57' W 008°44'917.1
2017-Oct-09 03:31N 35°56' W 008°55'917.2
2017-Oct-09 03:00N 35°55' W 009°05'917.1
2017-Oct-09 02:31N 35°55' W 009°16'917.1
2017-Oct-09 02:00N 35°54' W 009°27'917.3
2017-Oct-09 01:31N 35°53' W 009°37'1117.2
2017-Oct-09 00:53N 35°52' W 009°50'617.0
2017-Oct-09 00:31N 35°51' W 009°58'  

Dump ship's entire track history